createdAt,value
2018-01-14T00:00:45.297Z,5.13
2018-01-14T00:03:15.398Z,5.15
2018-01-14T00:05:45.389Z,5.18
2018-01-14T00:08:14.673Z,5.21
2018-01-14T00:10:43.883Z,5.23
2018-01-14T00:13:13.102Z,5.26
2018-01-14T00:15:43.839Z,5.27
2018-01-14T00:18:13.824Z,5.26
2018-01-14T00:20:43.382Z,5.20
2018-01-14T00:23:13.346Z,5.18
2018-01-14T00:25:44.107Z,5.16
2018-01-14T00:28:14.067Z,5.09
2018-01-14T00:30:43.303Z,5.08
2018-01-14T00:33:12.614Z,5.09
2018-01-14T00:35:41.879Z,5.07
2018-01-14T00:38:11.207Z,4.99
2018-01-14T00:40:40.448Z,4.94
2018-01-14T00:43:09.718Z,4.91
2018-01-14T00:45:39.039Z,4.88
2018-01-14T00:48:08.398Z,4.85
2018-01-14T00:50:37.606Z,4.85
2018-01-14T00:53:06.995Z,4.87
2018-01-14T00:55:36.251Z,4.87
2018-01-14T00:58:05.450Z,4.87
2018-01-14T01:00:34.786Z,4.85
2018-01-14T01:03:04.061Z,4.86
2018-01-14T01:05:33.429Z,4.86
2018-01-14T01:08:03.420Z,4.87
2018-01-14T01:10:32.618Z,4.83
2018-01-14T01:13:02.625Z,4.80
2018-01-14T01:15:31.887Z,4.77
2018-01-14T01:18:01.075Z,4.71
2018-01-14T01:20:30.300Z,4.64
2018-01-14T01:22:59.506Z,4.62
2018-01-14T01:25:28.778Z,4.65
2018-01-14T01:27:58.179Z,4.71
2018-01-14T01:30:27.584Z,4.75
2018-01-14T01:32:56.933Z,4.79
2018-01-14T01:35:26.974Z,4.77
2018-01-14T01:37:56.957Z,4.74
2018-01-14T01:40:26.250Z,4.67
2018-01-14T01:42:55.468Z,4.75
2018-01-14T01:45:25.561Z,4.86
2018-01-14T01:47:54.801Z,4.85
2018-01-14T01:50:24.842Z,4.85
2018-01-14T01:52:54.079Z,4.92
2018-01-14T01:55:23.296Z,4.83
2018-01-14T01:57:52.536Z,4.76
2018-01-14T02:00:22.123Z,4.71
2018-01-14T02:02:51.346Z,4.66
2018-01-14T02:05:20.603Z,4.65
2018-01-14T02:07:50.675Z,4.71
2018-01-14T02:10:20.040Z,4.74
2018-01-14T02:12:49.993Z,4.74
2018-01-14T02:15:19.994Z,4.67
2018-01-14T02:17:49.215Z,4.65
2018-01-14T02:20:20.369Z,4.68
2018-01-14T02:22:49.598Z,4.68
2018-01-14T02:25:19.610Z,4.65
2018-01-14T02:27:49.761Z,4.70
2018-01-14T02:30:19.019Z,4.76
2018-01-14T02:32:48.996Z,4.75
2018-01-14T02:35:18.223Z,4.75
2018-01-14T02:37:49.103Z,4.78
2018-01-14T02:40:18.330Z,4.72
2018-01-14T02:42:47.550Z,4.65
2018-01-14T02:45:16.855Z,4.67
2018-01-14T02:47:47.603Z,4.69
2018-01-14T02:50:17.602Z,4.66
2018-01-14T02:52:46.889Z,4.64
2018-01-14T02:55:16.137Z,4.64
2018-01-14T02:57:45.370Z,4.65
2018-01-14T03:00:16.121Z,4.68
2018-01-14T03:02:45.429Z,4.68
2018-01-14T03:05:14.644Z,4.69
2018-01-14T03:07:44.623Z,4.56
2018-01-14T03:10:13.849Z,4.49
2018-01-14T03:12:43.837Z,4.50
2018-01-14T03:15:13.058Z,4.53
2018-01-14T03:17:43.066Z,4.49
2018-01-14T03:20:12.263Z,4.34
2018-01-14T03:22:41.482Z,4.33
2018-01-14T03:25:12.154Z,4.24
2018-01-14T03:27:41.437Z,4.20
2018-01-14T03:30:10.687Z,4.19
2018-01-14T03:32:41.482Z,4.14
2018-01-14T03:35:10.694Z,4.09
2018-01-14T03:37:39.916Z,4.12
2018-01-14T03:40:09.171Z,4.16
2018-01-14T03:42:38.418Z,4.15
2018-01-14T03:45:07.715Z,4.12
2018-01-14T03:47:37.282Z,4.09
2018-01-14T03:50:06.498Z,4.07
2018-01-14T03:52:35.738Z,4.04
2018-01-14T03:55:05.711Z,4.10
2018-01-14T03:57:34.965Z,4.13
2018-01-14T04:00:04.206Z,4.13
2018-01-14T04:02:33.482Z,4.19
2018-01-14T04:05:02.690Z,4.20
2018-01-14T04:07:31.943Z,4.19
2018-01-14T04:10:01.903Z,4.21
2018-01-14T04:12:31.115Z,4.19
2018-01-14T04:15:00.350Z,4.21
2018-01-14T04:17:30.309Z,4.26
2018-01-14T04:19:59.542Z,4.33
2018-01-14T04:22:28.735Z,4.33
2018-01-14T04:24:59.487Z,4.34
2018-01-14T04:27:29.498Z,4.34
2018-01-14T04:29:58.851Z,4.42
2018-01-14T04:32:28.125Z,4.47
2018-01-14T04:34:58.136Z,4.52
2018-01-14T04:37:28.090Z,4.57
2018-01-14T04:39:57.310Z,4.58
2018-01-14T04:42:26.562Z,4.57
2018-01-14T04:44:55.879Z,4.52
2018-01-14T04:47:25.157Z,4.53
2018-01-14T04:49:54.412Z,4.51
2018-01-14T04:52:23.619Z,4.40
2018-01-14T04:54:53.634Z,4.40
2018-01-14T04:57:22.926Z,4.46
2018-01-14T04:59:52.196Z,4.44
2018-01-14T05:02:21.379Z,4.47
2018-01-14T05:04:50.569Z,4.49
2018-01-14T05:07:19.802Z,4.56
2018-01-14T05:09:49.174Z,4.64
2018-01-14T05:12:18.402Z,4.66
2018-01-14T05:14:47.594Z,4.70
2018-01-14T05:17:16.902Z,4.79
2018-01-14T05:19:46.098Z,4.86
2018-01-14T05:22:15.359Z,4.90
2018-01-14T05:24:44.623Z,4.92
2018-01-14T05:27:13.906Z,4.96
2018-01-14T05:29:43.124Z,4.93
2018-01-14T05:32:12.383Z,4.86
2018-01-14T05:34:41.603Z,4.86
2018-01-14T05:37:10.813Z,4.87
2018-01-14T05:39:40.043Z,4.84
2018-01-14T05:42:09.258Z,4.82
2018-01-14T05:44:38.518Z,4.78
2018-01-14T05:47:07.762Z,4.78
2018-01-14T05:49:36.971Z,4.83
2018-01-14T05:52:06.298Z,4.81
2018-01-14T05:54:36.327Z,4.80
2018-01-14T05:57:06.314Z,4.75
2018-01-14T05:59:35.542Z,4.75
2018-01-14T06:02:04.896Z,4.77
2018-01-14T06:04:34.095Z,4.81
2018-01-14T06:07:03.366Z,4.84
2018-01-14T06:09:32.626Z,4.74
2018-01-14T06:12:01.866Z,4.64
2018-01-14T06:14:31.082Z,4.61
2018-01-14T06:17:00.319Z,4.50
2018-01-14T06:19:29.551Z,4.45
2018-01-14T06:21:58.827Z,4.42
2018-01-14T06:24:28.871Z,4.44
2018-01-14T06:26:58.073Z,4.48
2018-01-14T06:29:27.285Z,4.46
2018-01-14T06:31:56.538Z,4.43
2018-01-14T06:34:26.543Z,4.39
2018-01-14T06:36:55.765Z,4.37
2018-01-14T06:39:25.731Z,4.43
2018-01-14T06:41:55.762Z,4.43
2018-01-14T06:44:25.017Z,4.45
2018-01-14T06:46:54.200Z,4.45
2018-01-14T06:49:24.387Z,4.44
2018-01-14T06:51:53.599Z,4.38
2018-01-14T06:54:23.570Z,4.37
2018-01-14T06:56:52.812Z,4.35
2018-01-14T06:59:22.866Z,4.28
2018-01-14T07:01:52.070Z,4.27
2018-01-14T07:04:21.284Z,4.27
2018-01-14T07:06:53.638Z,4.26
2018-01-14T07:09:22.842Z,4.25
2018-01-14T07:11:52.265Z,4.25
2018-01-14T07:14:21.517Z,4.28
2018-01-14T07:16:50.717Z,4.32
2018-01-14T07:19:19.935Z,4.36
2018-01-14T07:21:49.163Z,4.35
2018-01-14T07:24:18.408Z,4.32
2018-01-14T07:26:47.631Z,4.26
2018-01-14T07:29:16.917Z,4.27
2018-01-14T07:31:46.126Z,4.22
2018-01-14T07:34:15.479Z,4.31
2018-01-14T07:36:45.469Z,4.32
2018-01-14T07:39:14.739Z,4.31
2018-01-14T07:41:43.940Z,4.34
2018-01-14T07:44:13.153Z,4.22
2018-01-14T07:46:42.371Z,4.20
2018-01-14T07:49:12.391Z,4.25
2018-01-14T07:51:42.380Z,4.21
2018-01-14T07:54:11.643Z,4.25
2018-01-14T07:56:40.916Z,4.27
2018-01-14T07:59:10.897Z,4.34
2018-01-14T08:01:40.215Z,4.37
2018-01-14T08:04:09.355Z,4.36
2018-01-14T08:06:38.612Z,4.33
2018-01-14T08:09:07.871Z,4.31
2018-01-14T08:11:37.094Z,4.31
2018-01-14T08:14:06.347Z,4.28
2018-01-14T08:16:35.578Z,4.34
2018-01-14T08:19:04.809Z,4.36
2018-01-14T08:21:34.861Z,4.39
2018-01-14T08:24:04.094Z,4.41
2018-01-14T08:26:33.360Z,4.45
2018-01-14T08:29:02.821Z,4.49
2018-01-14T08:31:32.813Z,4.49
2018-01-14T08:34:02.049Z,4.52
2018-01-14T08:36:32.074Z,4.49
2018-01-14T08:39:02.082Z,4.54
2018-01-14T08:41:32.090Z,4.57
2018-01-14T08:44:01.364Z,4.61
2018-01-14T08:46:30.602Z,4.56
2018-01-14T08:49:00.165Z,4.57
2018-01-14T08:51:29.435Z,4.63
2018-01-14T08:53:58.681Z,4.69
2018-01-14T08:56:27.924Z,4.71
2018-01-14T08:58:57.138Z,4.71
2018-01-14T09:01:31.761Z,4.59
2018-01-14T09:04:00.966Z,4.57
2018-01-14T09:06:30.204Z,4.64
2018-01-14T09:08:59.563Z,4.71
2018-01-14T09:11:28.762Z,4.70
2018-01-14T09:13:57.998Z,4.73
2018-01-14T09:16:27.186Z,4.77
2018-01-14T09:18:56.437Z,4.83
2018-01-14T09:21:25.677Z,4.83
2018-01-14T09:23:54.923Z,4.87
2018-01-14T09:26:24.897Z,4.75
2018-01-14T09:28:54.187Z,4.57
2018-01-14T09:31:23.511Z,4.49
2018-01-14T09:33:53.539Z,4.45
2018-01-14T09:36:23.517Z,4.40
2018-01-14T09:38:52.824Z,4.33
2018-01-14T09:41:22.038Z,4.34
2018-01-14T09:43:54.325Z,4.32
2018-01-14T09:46:23.557Z,4.28
2018-01-14T09:48:52.965Z,4.25
2018-01-14T09:51:22.889Z,4.30
2018-01-14T09:53:52.176Z,4.41
2018-01-14T09:56:21.448Z,4.38
2018-01-14T09:58:50.642Z,4.31
2018-01-14T10:01:20.023Z,4.26
2018-01-14T10:03:49.436Z,4.28
2018-01-14T10:06:18.748Z,4.32
2018-01-14T10:08:47.938Z,4.33
2018-01-14T10:11:17.211Z,4.39
2018-01-14T10:13:46.446Z,4.45
2018-01-14T10:16:15.698Z,4.46
2018-01-14T10:18:45.117Z,4.46
2018-01-14T10:21:15.129Z,4.50
2018-01-14T10:23:44.376Z,4.48
2018-01-14T10:26:13.605Z,4.47
2018-01-14T10:28:42.839Z,4.54
2018-01-14T10:31:12.823Z,4.61
2018-01-14T10:33:42.049Z,4.64
2018-01-14T10:36:12.222Z,4.63
2018-01-14T10:38:41.482Z,4.67
2018-01-14T10:41:10.686Z,4.70
2018-01-14T10:43:39.935Z,4.77
2018-01-14T10:46:09.162Z,4.70
2018-01-14T10:48:38.394Z,4.71
2018-01-14T10:51:09.297Z,4.74
2018-01-14T10:53:39.551Z,4.81
2018-01-14T10:56:08.786Z,4.87
2018-01-14T10:58:38.031Z,4.90
2018-01-14T11:01:07.257Z,4.91
2018-01-14T11:03:36.466Z,4.98
2018-01-14T11:06:05.699Z,5.01
2018-01-14T11:08:35.742Z,5.03
2018-01-14T11:11:05.001Z,5.03
2018-01-14T11:13:34.202Z,5.08
2018-01-14T11:16:04.354Z,5.03
2018-01-14T11:18:33.663Z,5.02
2018-01-14T11:21:02.909Z,5.05
2018-01-14T11:23:33.618Z,5.11
2018-01-14T11:26:02.901Z,5.18
2018-01-14T11:28:38.642Z,5.19
2018-01-14T11:31:07.864Z,5.22
2018-01-14T11:33:37.173Z,5.24
2018-01-14T11:36:06.447Z,5.21
2018-01-14T11:38:35.849Z,5.19
2018-01-14T11:41:05.154Z,5.20
2018-01-14T11:43:34.375Z,5.19
2018-01-14T11:46:03.811Z,5.14
2018-01-14T11:48:33.843Z,5.08
2018-01-14T11:51:04.726Z,5.16
2018-01-14T11:53:33.936Z,5.22
2018-01-14T11:56:03.291Z,5.28
2018-01-14T11:58:32.547Z,5.36
2018-01-14T12:01:01.823Z,5.49
2018-01-14T12:03:31.078Z,5.57
2018-01-14T12:06:01.223Z,5.66
2018-01-14T12:08:30.470Z,5.74
2018-01-14T12:10:59.855Z,5.81
2018-01-14T12:13:29.115Z,5.84
2018-01-14T12:15:58.325Z,5.90
2018-01-14T12:18:27.530Z,5.92
2018-01-14T12:20:56.758Z,5.91
2018-01-14T12:23:26.743Z,5.98
2018-01-14T12:25:56.018Z,6.01
2018-01-14T12:28:25.270Z,6.02
2018-01-14T12:30:54.508Z,6.02
2018-01-14T12:36:14.175Z,5.94
2018-01-14T12:38:43.401Z,5.89
2018-01-14T12:41:12.738Z,5.84
2018-01-14T12:43:42.936Z,5.82
2018-01-14T12:46:12.211Z,5.71
2018-01-14T12:48:41.558Z,5.69
2018-01-14T12:51:10.828Z,5.75
2018-01-14T12:53:40.032Z,5.64
2018-01-14T12:56:09.325Z,5.58
2018-01-14T12:58:38.643Z,5.61
2018-01-14T13:01:07.870Z,5.62
2018-01-14T13:03:37.190Z,5.64
2018-01-14T13:06:07.216Z,5.66
2018-01-14T13:08:36.491Z,5.75
2018-01-14T13:11:05.699Z,5.75
2018-01-14T13:13:35.808Z,5.72
2018-01-14T13:16:05.083Z,5.70
2018-01-14T13:18:34.366Z,5.79
2018-01-14T13:21:03.689Z,5.78
2018-01-14T13:23:32.902Z,5.73
2018-01-14T13:26:02.190Z,5.71
2018-01-14T13:28:31.397Z,5.69
2018-01-14T13:31:00.626Z,5.65
2018-01-14T13:33:29.901Z,5.64
2018-01-14T13:35:59.903Z,5.62
2018-01-14T13:38:29.156Z,5.62
2018-01-14T13:40:58.547Z,5.65
2018-01-14T13:43:27.790Z,5.68
2018-01-14T13:45:57.125Z,5.72
2018-01-14T13:48:27.118Z,5.70
2018-01-14T13:50:56.358Z,5.65
2018-01-14T13:53:25.578Z,5.56
2018-01-14T13:55:54.822Z,5.59
2018-01-14T13:58:24.866Z,5.55
2018-01-14T14:00:54.123Z,5.54
2018-01-14T14:03:23.327Z,5.55
2018-01-14T14:05:52.579Z,5.62
2018-01-14T14:08:21.815Z,5.66
2018-01-14T14:10:51.897Z,5.64
2018-01-14T14:13:21.865Z,5.61
2018-01-14T14:15:51.112Z,5.66
2018-01-14T14:18:20.300Z,5.71
2018-01-14T14:20:49.600Z,5.77
2018-01-14T14:23:18.911Z,5.75
2018-01-14T14:25:48.152Z,5.75
2018-01-14T14:28:18.175Z,5.76
2018-01-14T14:30:48.188Z,5.78
2018-01-14T14:33:17.412Z,5.76
2018-01-14T14:35:46.615Z,5.70
2018-01-14T14:38:16.210Z,5.75
2018-01-14T14:40:46.214Z,5.77
2018-01-14T14:43:16.229Z,5.78
2018-01-14T14:45:45.651Z,5.78
2018-01-14T14:48:14.873Z,5.81
2018-01-14T14:50:44.138Z,5.82
2018-01-14T14:53:14.112Z,5.78
2018-01-14T14:55:43.539Z,5.77
2018-01-14T14:58:12.850Z,5.76
2018-01-14T15:00:42.022Z,5.78
2018-01-14T15:03:11.226Z,5.77
2018-01-14T15:05:40.536Z,5.74
2018-01-14T15:08:09.760Z,5.73
2018-01-14T15:10:39.826Z,5.63
2018-01-14T15:13:09.050Z,5.65
2018-01-14T15:15:39.170Z,5.63
2018-01-14T15:18:09.227Z,5.63
2018-01-14T15:20:38.497Z,5.58
2018-01-14T15:23:08.485Z,5.57
2018-01-14T15:25:37.718Z,5.54
2018-01-14T15:28:07.003Z,5.53
2018-01-14T15:30:36.243Z,5.49
2018-01-14T15:33:05.519Z,5.49
2018-01-14T15:35:35.514Z,5.45
2018-01-14T15:38:04.773Z,5.39
2018-01-14T15:40:34.034Z,5.26
2018-01-14T15:43:03.246Z,5.18
2018-01-14T15:45:33.094Z,5.14
2018-01-14T15:48:02.347Z,5.05
2018-01-14T15:50:32.323Z,4.97
2018-01-14T15:53:02.338Z,4.90
2018-01-14T15:55:31.642Z,4.84
2018-01-14T15:58:00.839Z,4.75
2018-01-14T16:00:30.889Z,4.68
2018-01-14T16:03:00.167Z,4.60
2018-01-14T16:05:30.156Z,4.49
2018-01-14T16:07:59.622Z,4.42
2018-01-14T16:10:28.852Z,4.37
2018-01-14T16:12:58.071Z,4.25
2018-01-14T16:15:28.226Z,4.21
2018-01-14T16:17:57.589Z,4.11
2018-01-14T16:20:26.845Z,4.04
2018-01-14T16:22:56.038Z,4.01
2018-01-14T16:25:25.284Z,4.01
2018-01-14T16:27:55.304Z,3.96
2018-01-14T16:30:24.590Z,3.99
2018-01-14T16:32:54.574Z,4.02
2018-01-14T16:35:25.252Z,3.96
2018-01-14T16:37:55.221Z,3.99
2018-01-14T16:40:24.450Z,4.02
2018-01-14T16:42:53.682Z,4.03
2018-01-14T16:45:23.807Z,4.13
2018-01-14T16:47:53.090Z,4.09
2018-01-14T16:50:22.400Z,4.09
2018-01-14T16:52:53.284Z,4.11
2018-01-14T16:55:22.507Z,4.18
2018-01-14T16:57:52.508Z,4.19
2018-01-14T17:00:21.759Z,4.19
2018-01-14T17:02:51.810Z,4.13
2018-01-14T17:05:21.040Z,4.12
2018-01-14T17:07:51.134Z,4.15
2018-01-14T17:10:20.310Z,4.18
2018-01-14T17:12:49.512Z,4.20
2018-01-14T17:15:18.741Z,4.16
2018-01-14T17:17:47.986Z,4.15
2018-01-14T17:20:17.292Z,4.10
2018-01-14T17:22:47.358Z,4.10
2018-01-14T17:25:16.598Z,4.08
2018-01-14T17:27:45.909Z,4.08
2018-01-14T17:30:15.869Z,4.08
2018-01-14T17:32:45.122Z,4.02
2018-01-14T17:35:14.388Z,4.00
2018-01-14T17:37:44.383Z,3.96
2018-01-14T17:40:13.668Z,3.90
2018-01-14T17:42:42.919Z,3.90
2018-01-14T17:45:12.389Z,3.92
2018-01-14T17:47:42.426Z,3.87
2018-01-14T17:50:11.674Z,3.85
2018-01-14T17:52:40.882Z,3.84
2018-01-14T17:55:10.155Z,3.82
2018-01-14T17:57:39.383Z,3.81
2018-01-14T18:00:08.665Z,3.71
2018-01-14T18:02:37.921Z,3.70
2018-01-14T18:05:07.939Z,3.63
2018-01-14T18:07:37.923Z,3.57
2018-01-14T18:10:07.179Z,3.51
2018-01-14T18:12:36.458Z,3.50
2018-01-14T18:15:05.679Z,3.46
2018-01-14T18:17:34.919Z,3.40
2018-01-14T18:20:04.956Z,3.38
2018-01-14T18:22:34.965Z,3.32
2018-01-14T18:25:04.969Z,3.26
2018-01-14T18:27:34.986Z,3.20
2018-01-14T18:30:04.972Z,3.17
2018-01-14T18:32:35.027Z,3.15
2018-01-14T18:35:05.062Z,3.14
2018-01-14T18:37:34.330Z,3.08
2018-01-14T18:40:03.610Z,3.03
2018-01-14T18:42:32.826Z,2.99
2018-01-14T18:45:02.044Z,2.94
2018-01-14T18:47:32.861Z,2.90
2018-01-14T18:50:02.087Z,2.87
2018-01-14T18:52:31.317Z,2.85
2018-01-14T18:55:00.571Z,2.79
2018-01-14T18:57:29.956Z,2.72
2018-01-14T18:59:59.208Z,2.65
2018-01-14T19:02:28.442Z,2.60
2018-01-14T19:04:57.652Z,2.42
2018-01-14T19:07:27.871Z,2.39
2018-01-14T19:09:57.123Z,2.28
2018-01-14T19:12:26.381Z,2.22
2018-01-14T19:14:56.402Z,2.20
2018-01-14T19:17:25.685Z,2.14
2018-01-14T19:19:55.810Z,2.11
2018-01-14T19:22:25.798Z,1.95
2018-01-14T19:24:55.187Z,1.99
2018-01-14T19:27:24.427Z,1.92
2018-01-14T19:29:53.650Z,1.99
2018-01-14T19:32:22.913Z,1.98
2018-01-14T19:34:52.170Z,1.93
2018-01-14T19:37:21.484Z,1.96
2018-01-14T19:39:50.752Z,2.04
2018-01-14T19:42:19.985Z,2.09
2018-01-14T19:44:49.300Z,2.06
2018-01-14T19:47:18.573Z,2.11
2018-01-14T19:49:47.927Z,2.14
2018-01-14T19:52:17.940Z,2.17
2018-01-14T19:54:47.194Z,2.17
2018-01-14T19:57:17.341Z,2.20
2018-01-14T19:59:46.607Z,2.12
2018-01-14T20:02:15.863Z,2.23
2018-01-14T20:04:45.889Z,2.30
2018-01-14T20:07:15.131Z,2.33
2018-01-14T20:09:44.391Z,2.44
2018-01-14T20:12:13.790Z,2.44
2018-01-14T20:14:44.011Z,2.46
2018-01-14T20:17:13.415Z,2.49
2018-01-14T20:19:42.822Z,2.51
2018-01-14T20:22:12.066Z,2.57
2018-01-14T20:24:41.431Z,2.56
2018-01-14T20:27:10.731Z,2.51
2018-01-14T20:29:39.981Z,2.61
2018-01-14T20:32:10.137Z,2.68
2018-01-14T20:34:39.500Z,2.82
2018-01-14T20:37:08.821Z,2.86
2018-01-14T20:39:38.170Z,2.94
2018-01-14T20:42:07.443Z,3.08
2018-01-14T20:44:42.120Z,3.15
2018-01-14T20:47:11.436Z,3.15
2018-01-14T20:49:40.841Z,3.19
2018-01-14T20:52:10.952Z,3.23
2018-01-14T20:54:40.238Z,3.25
2018-01-14T20:57:09.619Z,3.25
2018-01-14T20:59:38.941Z,3.26
2018-01-14T21:02:08.367Z,3.32
2018-01-14T21:04:38.722Z,3.36
2018-01-14T21:07:07.966Z,3.38
2018-01-14T21:09:38.071Z,3.42
2018-01-14T21:12:07.373Z,3.46
2018-01-14T21:14:36.658Z,3.51
2018-01-14T21:17:06.734Z,3.42
2018-01-14T21:19:36.114Z,3.48
2018-01-14T21:22:06.180Z,3.52
2018-01-14T21:24:35.444Z,3.44
2018-01-14T21:27:05.558Z,3.43
2018-01-14T21:29:34.816Z,3.45
2018-01-14T21:32:03.994Z,3.39
2018-01-14T21:34:33.305Z,3.45
2018-01-14T21:37:02.540Z,3.49
2018-01-14T21:39:31.917Z,3.44
2018-01-14T21:42:01.172Z,3.46
2018-01-14T21:44:30.444Z,3.43
2018-01-14T21:46:59.710Z,3.44
2018-01-14T21:49:29.140Z,3.46
2018-01-14T21:51:58.411Z,3.41
2018-01-14T21:54:27.618Z,3.44
2018-01-14T21:56:56.858Z,3.47
2018-01-14T21:59:26.087Z,3.42
2018-01-14T22:01:55.317Z,3.48
2018-01-14T22:04:24.665Z,3.53
2018-01-14T22:06:54.117Z,3.54
2018-01-14T22:09:24.256Z,3.51
2018-01-14T22:11:53.510Z,3.51
2018-01-14T22:14:22.729Z,3.54
2018-01-14T22:16:53.063Z,3.52
2018-01-14T22:19:23.273Z,3.52
2018-01-14T22:21:52.525Z,3.53
2018-01-14T22:24:22.517Z,3.53
2018-01-14T22:26:51.780Z,3.50
2018-01-14T22:29:21.040Z,3.47
2018-01-14T22:31:50.305Z,3.49
2018-01-14T22:34:20.370Z,3.45
2018-01-14T22:36:49.642Z,3.42
2018-01-14T22:39:18.874Z,3.43
2018-01-14T22:41:48.108Z,3.46
2018-01-14T22:44:17.406Z,3.53
2018-01-14T22:46:47.410Z,3.48
2018-01-14T22:49:16.730Z,3.51
2018-01-14T22:51:46.751Z,3.51
2018-01-14T22:54:16.819Z,3.55
2018-01-14T22:56:46.183Z,3.54
2018-01-14T22:59:15.398Z,3.49
2018-01-14T23:01:44.634Z,3.48
2018-01-14T23:04:13.908Z,3.46
2018-01-14T23:06:43.234Z,3.43
2018-01-14T23:09:12.511Z,3.44
2018-01-14T23:11:41.820Z,3.40
2018-01-14T23:14:11.162Z,3.40
2018-01-14T23:16:41.184Z,3.37
2018-01-14T23:19:10.415Z,3.39
2018-01-14T23:21:39.685Z,3.38
2018-01-14T23:24:09.691Z,3.47
2018-01-14T23:26:38.898Z,3.50
2018-01-14T23:29:08.899Z,3.48
2018-01-14T23:31:38.906Z,3.50
2018-01-14T23:34:08.446Z,3.47
2018-01-14T23:36:37.659Z,3.46
2018-01-14T23:39:06.905Z,3.44
2018-01-14T23:41:36.135Z,3.43
2018-01-14T23:44:05.363Z,3.45
2018-01-14T23:46:34.634Z,3.47
2018-01-14T23:49:03.898Z,3.47
2018-01-14T23:51:33.135Z,3.46
2018-01-14T23:54:02.394Z,3.49
2018-01-14T23:56:31.623Z,3.47
2018-01-14T23:59:01.644Z,3.41
